sensor_id;sensor_type;location;lat;lon;timestamp;P1;durP1;ratioP1;P2;durP2;ratioP2
15776;SDS011;7989;51.198;6.676;2022-09-29T00:02:20;5.28;;;4.35;;
15776;SDS011;7989;51.198;6.676;2022-09-29T00:04:47;4.53;;;4.13;;
15776;SDS011;7989;51.198;6.676;2022-09-29T00:07:14;4.78;;;4.25;;
15776;SDS011;7989;51.198;6.676;2022-09-29T00:09:40;5.55;;;5.00;;
15776;SDS011;7989;51.198;6.676;2022-09-29T00:12:07;7.68;;;5.05;;
15776;SDS011;7989;51.198;6.676;2022-09-29T00:14:35;6.30;;;4.68;;
15776;SDS011;7989;51.198;6.676;2022-09-29T00:17:02;5.20;;;4.10;;
15776;SDS011;7989;51.198;6.676;2022-09-29T00:19:29;6.75;;;5.47;;
15776;SDS011;7989;51.198;6.676;2022-09-29T00:21:57;5.50;;;4.38;;
15776;SDS011;7989;51.198;6.676;2022-09-29T00:24:24;5.47;;;4.93;;
15776;SDS011;7989;51.198;6.676;2022-09-29T00:26:51;5.30;;;4.80;;
15776;SDS011;7989;51.198;6.676;2022-09-29T00:29:18;5.13;;;4.32;;
15776;SDS011;7989;51.198;6.676;2022-09-29T00:31:46;5.50;;;4.43;;
15776;SDS011;7989;51.198;6.676;2022-09-29T00:34:13;6.50;;;4.53;;
15776;SDS011;7989;51.198;6.676;2022-09-29T00:36:39;5.10;;;4.45;;
15776;SDS011;7989;51.198;6.676;2022-09-29T00:39:06;4.97;;;4.55;;
15776;SDS011;7989;51.198;6.676;2022-09-29T00:41:34;5.00;;;4.50;;
15776;SDS011;7989;51.198;6.676;2022-09-29T00:44:03;5.40;;;4.90;;
15776;SDS011;7989;51.198;6.676;2022-09-29T00:46:33;4.88;;;4.47;;
15776;SDS011;7989;51.198;6.676;2022-09-29T00:49:09;4.70;;;4.22;;
15776;SDS011;7989;51.198;6.676;2022-09-29T00:51:43;4.78;;;4.38;;
15776;SDS011;7989;51.198;6.676;2022-09-29T00:54:14;4.85;;;4.35;;
15776;SDS011;7989;51.198;6.676;2022-09-29T00:56:42;5.90;;;4.50;;
15776;SDS011;7989;51.198;6.676;2022-09-29T00:59:11;7.57;;;4.10;;
15776;SDS011;7989;51.198;6.676;2022-09-29T01:01:39;4.78;;;4.38;;
15776;SDS011;7989;51.198;6.676;2022-09-29T01:04:08;7.80;;;4.00;;
15776;SDS011;7989;51.198;6.676;2022-09-29T01:06:37;4.45;;;4.07;;
15776;SDS011;7989;51.198;6.676;2022-09-29T01:09:07;5.35;;;4.32;;
15776;SDS011;7989;51.198;6.676;2022-09-29T01:11:36;5.55;;;4.63;;
15776;SDS011;7989;51.198;6.676;2022-09-29T01:14:04;5.35;;;4.85;;
15776;SDS011;7989;51.198;6.676;2022-09-29T01:16:33;4.88;;;4.32;;
15776;SDS011;7989;51.198;6.676;2022-09-29T01:19:02;5.60;;;4.60;;
15776;SDS011;7989;51.198;6.676;2022-09-29T01:21:35;4.30;;;4.00;;
15776;SDS011;7989;51.198;6.676;2022-09-29T01:27:15;3.70;;;3.40;;
15776;SDS011;7989;51.198;6.676;2022-09-29T01:30:05;4.70;;;4.20;;
15776;SDS011;7989;51.198;6.676;2022-09-29T01:32:42;5.88;;;4.32;;
15776;SDS011;7989;51.198;6.676;2022-09-29T01:35:39;4.22;;;3.88;;
15776;SDS011;7989;51.198;6.676;2022-09-29T01:38:16;4.80;;;4.45;;
15776;SDS011;7989;51.198;6.676;2022-09-29T01:40:53;6.07;;;4.63;;
15776;SDS011;7989;51.198;6.676;2022-09-29T01:43:30;6.97;;;4.28;;
15776;SDS011;7989;51.198;6.676;2022-09-29T01:46:00;3.50;;;3.20;;
15776;SDS011;7989;51.198;6.676;2022-09-29T01:48:31;4.63;;;4.22;;
15776;SDS011;7989;51.198;6.676;2022-09-29T01:51:03;4.43;;;4.05;;
15776;SDS011;7989;51.198;6.676;2022-09-29T01:53:34;4.95;;;4.50;;
15776;SDS011;7989;51.198;6.676;2022-09-29T01:56:04;5.30;;;4.47;;
15776;SDS011;7989;51.198;6.676;2022-09-29T01:58:35;4.38;;;3.97;;
15776;SDS011;7989;51.198;6.676;2022-09-29T02:01:09;5.18;;;4.13;;
15776;SDS011;7989;51.198;6.676;2022-09-29T02:03:41;5.38;;;4.65;;
15776;SDS011;7989;51.198;6.676;2022-09-29T02:06:13;6.53;;;4.57;;
15776;SDS011;7989;51.198;6.676;2022-09-29T02:08:43;5.03;;;4.50;;
15776;SDS011;7989;51.198;6.676;2022-09-29T02:11:12;4.40;;;3.90;;
15776;SDS011;7989;51.198;6.676;2022-09-29T02:13:39;7.95;;;3.88;;
15776;SDS011;7989;51.198;6.676;2022-09-29T02:16:09;6.18;;;4.35;;
15776;SDS011;7989;51.198;6.676;2022-09-29T02:18:41;4.55;;;4.18;;
15776;SDS011;7989;51.198;6.676;2022-09-29T02:21:15;3.85;;;3.55;;
15776;SDS011;7989;51.198;6.676;2022-09-29T02:23:42;5.65;;;4.30;;
15776;SDS011;7989;51.198;6.676;2022-09-29T02:26:09;5.15;;;4.00;;
15776;SDS011;7989;51.198;6.676;2022-09-29T02:28:37;4.60;;;4.18;;
15776;SDS011;7989;51.198;6.676;2022-09-29T02:31:05;4.32;;;3.55;;
15776;SDS011;7989;51.198;6.676;2022-09-29T02:33:32;4.97;;;4.32;;
15776;SDS011;7989;51.198;6.676;2022-09-29T02:36:04;4.38;;;3.47;;
15776;SDS011;7989;51.198;6.676;2022-09-29T02:38:42;7.03;;;3.85;;
15776;SDS011;7989;51.198;6.676;2022-09-29T02:41:14;6.70;;;3.97;;
15776;SDS011;7989;51.198;6.676;2022-09-29T02:43:58;5.72;;;4.22;;
15776;SDS011;7989;51.198;6.676;2022-09-29T02:46:46;4.10;;;3.80;;
15776;SDS011;7989;51.198;6.676;2022-09-29T02:49:28;4.50;;;3.92;;
15776;SDS011;7989;51.198;6.676;2022-09-29T02:52:09;4.00;;;3.58;;
15776;SDS011;7989;51.198;6.676;2022-09-29T02:54:49;4.35;;;3.95;;
15776;SDS011;7989;51.198;6.676;2022-09-29T02:57:27;4.57;;;3.65;;
15776;SDS011;7989;51.198;6.676;2022-09-29T03:00:00;7.70;;;6.95;;
15776;SDS011;7989;51.198;6.676;2022-09-29T03:02:34;11.80;;;9.27;;
15776;SDS011;7989;51.198;6.676;2022-09-29T03:05:02;27.70;;;24.98;;
15776;SDS011;7989;51.198;6.676;2022-09-29T03:07:31;15.02;;;12.48;;
15776;SDS011;7989;51.198;6.676;2022-09-29T03:09:58;17.15;;;15.25;;
15776;SDS011;7989;51.198;6.676;2022-09-29T03:12:24;6.15;;;5.60;;
15776;SDS011;7989;51.198;6.676;2022-09-29T03:14:51;4.88;;;4.47;;
15776;SDS011;7989;51.198;6.676;2022-09-29T03:17:18;3.95;;;3.65;;
15776;SDS011;7989;51.198;6.676;2022-09-29T03:19:45;4.93;;;4.30;;
15776;SDS011;7989;51.198;6.676;2022-09-29T03:22:12;5.22;;;4.70;;
15776;SDS011;7989;51.198;6.676;2022-09-29T03:24:40;6.68;;;4.55;;
15776;SDS011;7989;51.198;6.676;2022-09-29T03:27:07;5.05;;;4.55;;
15776;SDS011;7989;51.198;6.676;2022-09-29T03:29:35;6.25;;;4.22;;
15776;SDS011;7989;51.198;6.676;2022-09-29T03:32:02;5.47;;;4.85;;
15776;SDS011;7989;51.198;6.676;2022-09-29T03:34:30;5.45;;;4.45;;
15776;SDS011;7989;51.198;6.676;2022-09-29T03:36:57;4.25;;;3.85;;
15776;SDS011;7989;51.198;6.676;2022-09-29T03:39:24;4.18;;;3.78;;
15776;SDS011;7989;51.198;6.676;2022-09-29T03:41:53;5.22;;;4.10;;
15776;SDS011;7989;51.198;6.676;2022-09-29T03:44:20;4.78;;;4.38;;
15776;SDS011;7989;51.198;6.676;2022-09-29T03:46:47;4.78;;;4.38;;
15776;SDS011;7989;51.198;6.676;2022-09-29T03:49:14;6.15;;;4.57;;
15776;SDS011;7989;51.198;6.676;2022-09-29T03:51:41;4.80;;;4.40;;
15776;SDS011;7989;51.198;6.676;2022-09-29T03:54:08;5.03;;;4.38;;
15776;SDS011;7989;51.198;6.676;2022-09-29T03:56:35;6.72;;;6.13;;
15776;SDS011;7989;51.198;6.676;2022-09-29T03:59:04;5.15;;;4.75;;
15776;SDS011;7989;51.198;6.676;2022-09-29T04:01:33;6.53;;;5.65;;
15776;SDS011;7989;51.198;6.676;2022-09-29T04:04:00;7.43;;;6.13;;
15776;SDS011;7989;51.198;6.676;2022-09-29T04:06:27;6.68;;;6.03;;
15776;SDS011;7989;51.198;6.676;2022-09-29T04:08:54;10.35;;;7.25;;
15776;SDS011;7989;51.198;6.676;2022-09-29T04:11:20;8.30;;;7.35;;
15776;SDS011;7989;51.198;6.676;2022-09-29T04:13:47;8.60;;;7.70;;
15776;SDS011;7989;51.198;6.676;2022-09-29T04:16:15;9.02;;;8.23;;
15776;SDS011;7989;51.198;6.676;2022-09-29T04:18:42;6.80;;;6.18;;
15776;SDS011;7989;51.198;6.676;2022-09-29T04:21:10;7.85;;;7.05;;
15776;SDS011;7989;51.198;6.676;2022-09-29T04:23:37;8.77;;;7.03;;
15776;SDS011;7989;51.198;6.676;2022-09-29T04:26:03;16.58;;;11.60;;
15776;SDS011;7989;51.198;6.676;2022-09-29T04:28:31;10.35;;;7.63;;
15776;SDS011;7989;51.198;6.676;2022-09-29T04:30:58;8.15;;;7.13;;
15776;SDS011;7989;51.198;6.676;2022-09-29T04:33:26;8.35;;;6.40;;
15776;SDS011;7989;51.198;6.676;2022-09-29T04:35:55;13.00;;;7.72;;
15776;SDS011;7989;51.198;6.676;2022-09-29T04:38:22;7.68;;;6.63;;
15776;SDS011;7989;51.198;6.676;2022-09-29T04:40:49;9.60;;;6.30;;
15776;SDS011;7989;51.198;6.676;2022-09-29T04:43:16;6.90;;;6.15;;
15776;SDS011;7989;51.198;6.676;2022-09-29T04:45:43;7.45;;;6.68;;
15776;SDS011;7989;51.198;6.676;2022-09-29T04:48:10;7.03;;;6.35;;
15776;SDS011;7989;51.198;6.676;2022-09-29T04:50:38;25.70;;;23.15;;
15776;SDS011;7989;51.198;6.676;2022-09-29T04:53:05;32.53;;;29.20;;
15776;SDS011;7989;51.198;6.676;2022-09-29T04:55:32;16.95;;;15.30;;
15776;SDS011;7989;51.198;6.676;2022-09-29T04:57:59;6.80;;;6.20;;
15776;SDS011;7989;51.198;6.676;2022-09-29T05:00:26;13.30;;;12.00;;
15776;SDS011;7989;51.198;6.676;2022-09-29T05:02:53;21.02;;;18.83;;
15776;SDS011;7989;51.198;6.676;2022-09-29T05:05:19;9.23;;;8.43;;
15776;SDS011;7989;51.198;6.676;2022-09-29T05:07:48;8.45;;;7.65;;
15776;SDS011;7989;51.198;6.676;2022-09-29T05:10:14;15.63;;;13.75;;
15776;SDS011;7989;51.198;6.676;2022-09-29T05:12:46;8.80;;;6.95;;
15776;SDS011;7989;51.198;6.676;2022-09-29T05:15:14;10.07;;;7.07;;
15776;SDS011;7989;51.198;6.676;2022-09-29T05:17:41;6.72;;;6.10;;
15776;SDS011;7989;51.198;6.676;2022-09-29T05:20:08;8.13;;;5.82;;
15776;SDS011;7989;51.198;6.676;2022-09-29T05:22:35;6.65;;;5.63;;
15776;SDS011;7989;51.198;6.676;2022-09-29T05:25:04;6.85;;;5.80;;
15776;SDS011;7989;51.198;6.676;2022-09-29T05:27:32;7.50;;;5.53;;
15776;SDS011;7989;51.198;6.676;2022-09-29T05:30:00;7.45;;;6.53;;
15776;SDS011;7989;51.198;6.676;2022-09-29T05:32:27;7.25;;;5.97;;
15776;SDS011;7989;51.198;6.676;2022-09-29T05:34:54;6.18;;;5.57;;
15776;SDS011;7989;51.198;6.676;2022-09-29T05:37:21;6.55;;;5.88;;
15776;SDS011;7989;51.198;6.676;2022-09-29T05:39:48;6.40;;;5.80;;
15776;SDS011;7989;51.198;6.676;2022-09-29T05:42:16;6.60;;;6.00;;
15776;SDS011;7989;51.198;6.676;2022-09-29T05:44:44;9.18;;;6.22;;
15776;SDS011;7989;51.198;6.676;2022-09-29T05:47:11;6.72;;;6.07;;
15776;SDS011;7989;51.198;6.676;2022-09-29T05:49:37;7.68;;;6.80;;
15776;SDS011;7989;51.198;6.676;2022-09-29T05:52:04;6.90;;;6.30;;
15776;SDS011;7989;51.198;6.676;2022-09-29T05:54:32;6.72;;;6.13;;
15776;SDS011;7989;51.198;6.676;2022-09-29T05:56:58;6.97;;;5.85;;
15776;SDS011;7989;51.198;6.676;2022-09-29T05:59:27;6.88;;;6.18;;
15776;SDS011;7989;51.198;6.676;2022-09-29T06:01:53;7.28;;;6.57;;
15776;SDS011;7989;51.198;6.676;2022-09-29T06:04:20;7.88;;;7.03;;
15776;SDS011;7989;51.198;6.676;2022-09-29T06:06:47;8.85;;;7.32;;
15776;SDS011;7989;51.198;6.676;2022-09-29T06:09:14;8.18;;;7.45;;
15776;SDS011;7989;51.198;6.676;2022-09-29T06:11:40;8.63;;;7.72;;
15776;SDS011;7989;51.198;6.676;2022-09-29T06:14:07;8.15;;;7.35;;
15776;SDS011;7989;51.198;6.676;2022-09-29T06:16:35;12.32;;;8.48;;
15776;SDS011;7989;51.198;6.676;2022-09-29T06:19:02;8.63;;;7.82;;
15776;SDS011;7989;51.198;6.676;2022-09-29T06:21:30;7.78;;;6.97;;
15776;SDS011;7989;51.198;6.676;2022-09-29T06:23:59;6.55;;;6.05;;
15776;SDS011;7989;51.198;6.676;2022-09-29T06:26:26;9.93;;;9.00;;
15776;SDS011;7989;51.198;6.676;2022-09-29T06:28:54;8.98;;;8.18;;
15776;SDS011;7989;51.198;6.676;2022-09-29T06:31:23;10.50;;;9.40;;
15776;SDS011;7989;51.198;6.676;2022-09-29T06:33:52;8.77;;;7.78;;
15776;SDS011;7989;51.198;6.676;2022-09-29T06:36:22;8.75;;;7.75;;
15776;SDS011;7989;51.198;6.676;2022-09-29T06:39:10;10.70;;;9.70;;
15776;SDS011;7989;51.198;6.676;2022-09-29T06:41:38;8.88;;;7.97;;
15776;SDS011;7989;51.198;6.676;2022-09-29T06:44:05;7.40;;;6.80;;
15776;SDS011;7989;51.198;6.676;2022-09-29T06:46:33;8.95;;;8.07;;
15776;SDS011;7989;51.198;6.676;2022-09-29T06:49:01;7.20;;;6.70;;
15776;SDS011;7989;51.198;6.676;2022-09-29T06:51:28;9.50;;;7.25;;
15776;SDS011;7989;51.198;6.676;2022-09-29T06:53:54;7.95;;;7.28;;
15776;SDS011;7989;51.198;6.676;2022-09-29T06:56:21;9.02;;;8.13;;
15776;SDS011;7989;51.198;6.676;2022-09-29T06:58:48;8.40;;;7.65;;
15776;SDS011;7989;51.198;6.676;2022-09-29T07:01:15;8.93;;;7.60;;
15776;SDS011;7989;51.198;6.676;2022-09-29T07:03:41;8.85;;;8.15;;
15776;SDS011;7989;51.198;6.676;2022-09-29T07:06:09;8.20;;;7.40;;
15776;SDS011;7989;51.198;6.676;2022-09-29T07:08:36;9.75;;;8.10;;
15776;SDS011;7989;51.198;6.676;2022-09-29T07:11:04;8.18;;;7.38;;
15776;SDS011;7989;51.198;6.676;2022-09-29T07:13:32;10.10;;;7.72;;
15776;SDS011;7989;51.198;6.676;2022-09-29T07:16:02;6.55;;;6.05;;
15776;SDS011;7989;51.198;6.676;2022-09-29T07:18:32;8.52;;;6.70;;
15776;SDS011;7989;51.198;6.676;2022-09-29T07:20:59;6.60;;;5.82;;
15776;SDS011;7989;51.198;6.676;2022-09-29T07:23:28;6.57;;;5.82;;
15776;SDS011;7989;51.198;6.676;2022-09-29T07:25:54;7.32;;;6.63;;
15776;SDS011;7989;51.198;6.676;2022-09-29T07:28:21;8.10;;;6.72;;
15776;SDS011;7989;51.198;6.676;2022-09-29T07:30:57;7.70;;;6.85;;
15776;SDS011;7989;51.198;6.676;2022-09-29T07:33:24;11.32;;;6.57;;
15776;SDS011;7989;51.198;6.676;2022-09-29T07:35:51;11.40;;;7.10;;
15776;SDS011;7989;51.198;6.676;2022-09-29T07:38:18;10.13;;;7.88;;
15776;SDS011;7989;51.198;6.676;2022-09-29T07:40:46;19.50;;;16.83;;
15776;SDS011;7989;51.198;6.676;2022-09-29T07:43:13;9.82;;;7.43;;
15776;SDS011;7989;51.198;6.676;2022-09-29T07:45:44;8.30;;;7.18;;
15776;SDS011;7989;51.198;6.676;2022-09-29T07:48:11;8.05;;;7.28;;
15776;SDS011;7989;51.198;6.676;2022-09-29T07:50:38;7.22;;;6.63;;
15776;SDS011;7989;51.198;6.676;2022-09-29T07:53:05;9.65;;;7.70;;
15776;SDS011;7989;51.198;6.676;2022-09-29T07:55:32;8.32;;;7.28;;
15776;SDS011;7989;51.198;6.676;2022-09-29T07:58:00;8.75;;;7.38;;
15776;SDS011;7989;51.198;6.676;2022-09-29T08:00:27;8.13;;;7.00;;
15776;SDS011;7989;51.198;6.676;2022-09-29T08:02:57;9.13;;;8.00;;
15776;SDS011;7989;51.198;6.676;2022-09-29T08:05:26;8.15;;;7.15;;
15776;SDS011;7989;51.198;6.676;2022-09-29T08:07:53;9.40;;;8.45;;
15776;SDS011;7989;51.198;6.676;2022-09-29T08:10:20;13.38;;;12.02;;
15776;SDS011;7989;51.198;6.676;2022-09-29T08:12:47;27.63;;;24.70;;
15776;SDS011;7989;51.198;6.676;2022-09-29T08:15:15;9.07;;;8.18;;
15776;SDS011;7989;51.198;6.676;2022-09-29T08:17:42;8.18;;;7.40;;
15776;SDS011;7989;51.198;6.676;2022-09-29T08:20:08;9.55;;;7.55;;
15776;SDS011;7989;51.198;6.676;2022-09-29T08:22:35;8.73;;;7.65;;
15776;SDS011;7989;51.198;6.676;2022-09-29T08:25:02;7.85;;;7.05;;
15776;SDS011;7989;51.198;6.676;2022-09-29T08:27:29;10.07;;;7.95;;
15776;SDS011;7989;51.198;6.676;2022-09-29T08:29:57;10.15;;;7.22;;
15776;SDS011;7989;51.198;6.676;2022-09-29T08:32:25;7.82;;;6.88;;
15776;SDS011;7989;51.198;6.676;2022-09-29T08:34:52;7.93;;;6.53;;
15776;SDS011;7989;51.198;6.676;2022-09-29T08:37:19;7.30;;;6.13;;
15776;SDS011;7989;51.198;6.676;2022-09-29T08:39:45;7.45;;;6.68;;
15776;SDS011;7989;51.198;6.676;2022-09-29T08:42:14;7.32;;;6.55;;
15776;SDS011;7989;51.198;6.676;2022-09-29T08:44:47;8.60;;;6.70;;
15776;SDS011;7989;51.198;6.676;2022-09-29T08:47:20;7.95;;;7.15;;
15776;SDS011;7989;51.198;6.676;2022-09-29T08:49:54;15.77;;;7.03;;
15776;SDS011;7989;51.198;6.676;2022-09-29T08:52:24;12.25;;;9.60;;
15776;SDS011;7989;51.198;6.676;2022-09-29T08:54:55;9.15;;;8.27;;
15776;SDS011;7989;51.198;6.676;2022-09-29T08:57:27;6.35;;;5.70;;
15776;SDS011;7989;51.198;6.676;2022-09-29T08:59:54;6.22;;;5.55;;
15776;SDS011;7989;51.198;6.676;2022-09-29T09:02:33;6.63;;;6.03;;
15776;SDS011;7989;51.198;6.676;2022-09-29T09:05:26;5.95;;;5.32;;
15776;SDS011;7989;51.198;6.676;2022-09-29T09:08:14;5.22;;;4.70;;
15776;SDS011;7989;51.198;6.676;2022-09-29T09:10:49;6.70;;;5.68;;
15776;SDS011;7989;51.198;6.676;2022-09-29T09:13:29;7.88;;;5.68;;
15776;SDS011;7989;51.198;6.676;2022-09-29T09:16:15;8.15;;;6.80;;
15776;SDS011;7989;51.198;6.676;2022-09-29T09:21:49;8.75;;;6.22;;
15776;SDS011;7989;51.198;6.676;2022-09-29T09:24:21;7.97;;;5.95;;
15776;SDS011;7989;51.198;6.676;2022-09-29T09:26:55;6.40;;;5.75;;
15776;SDS011;7989;51.198;6.676;2022-09-29T09:29:24;7.22;;;6.13;;
15776;SDS011;7989;51.198;6.676;2022-09-29T09:31:55;7.18;;;5.88;;
15776;SDS011;7989;51.198;6.676;2022-09-29T09:34:27;8.82;;;7.05;;
15776;SDS011;7989;51.198;6.676;2022-09-29T09:37:00;8.85;;;5.88;;
15776;SDS011;7989;51.198;6.676;2022-09-29T09:39:33;7.75;;;6.07;;
15776;SDS011;7989;51.198;6.676;2022-09-29T09:42:05;6.53;;;5.22;;
15776;SDS011;7989;51.198;6.676;2022-09-29T09:44:39;6.75;;;5.25;;
15776;SDS011;7989;51.198;6.676;2022-09-29T09:47:17;6.05;;;5.05;;
15776;SDS011;7989;51.198;6.676;2022-09-29T09:49:51;6.72;;;6.13;;
15776;SDS011;7989;51.198;6.676;2022-09-29T09:52:23;7.68;;;6.88;;
15776;SDS011;7989;51.198;6.676;2022-09-29T09:54:57;7.13;;;6.00;;
15776;SDS011;7989;51.198;6.676;2022-09-29T09:57:30;7.55;;;6.85;;
15776;SDS011;7989;51.198;6.676;2022-09-29T10:00:11;7.75;;;6.90;;
15776;SDS011;7989;51.198;6.676;2022-09-29T10:02:41;6.07;;;5.47;;
15776;SDS011;7989;51.198;6.676;2022-09-29T10:05:12;7.47;;;5.50;;
15776;SDS011;7989;51.198;6.676;2022-09-29T10:07:41;9.93;;;8.93;;
15776;SDS011;7989;51.198;6.676;2022-09-29T10:10:14;8.13;;;6.78;;
15776;SDS011;7989;51.198;6.676;2022-09-29T10:12:43;9.98;;;8.98;;
15776;SDS011;7989;51.198;6.676;2022-09-29T10:15:17;7.53;;;5.75;;
15776;SDS011;7989;51.198;6.676;2022-09-29T10:17:49;9.02;;;7.43;;
15776;SDS011;7989;51.198;6.676;2022-09-29T10:20:34;8.65;;;7.35;;
15776;SDS011;7989;51.198;6.676;2022-09-29T10:26:01;6.32;;;5.78;;
15776;SDS011;7989;51.198;6.676;2022-09-29T10:28:37;5.82;;;4.40;;
15776;SDS011;7989;51.198;6.676;2022-09-29T10:31:16;6.85;;;4.90;;
15776;SDS011;7989;51.198;6.676;2022-09-29T10:33:46;13.68;;;7.72;;
15776;SDS011;7989;51.198;6.676;2022-09-29T10:36:17;8.05;;;6.20;;
15776;SDS011;7989;51.198;6.676;2022-09-29T10:38:46;5.78;;;5.28;;
15776;SDS011;7989;51.198;6.676;2022-09-29T10:41:15;5.30;;;4.80;;
15776;SDS011;7989;51.198;6.676;2022-09-29T10:43:44;6.05;;;5.55;;
15776;SDS011;7989;51.198;6.676;2022-09-29T10:46:32;5.55;;;5.05;;
15776;SDS011;7989;51.198;6.676;2022-09-29T10:49:09;12.20;;;9.38;;
15776;SDS011;7989;51.198;6.676;2022-09-29T10:51:40;6.30;;;5.70;;
15776;SDS011;7989;51.198;6.676;2022-09-29T10:54:13;8.52;;;5.53;;
15776;SDS011;7989;51.198;6.676;2022-09-29T10:56:43;7.07;;;5.68;;
15776;SDS011;7989;51.198;6.676;2022-09-29T10:59:12;6.65;;;4.95;;
15776;SDS011;7989;51.198;6.676;2022-09-29T11:01:42;7.28;;;4.88;;
15776;SDS011;7989;51.198;6.676;2022-09-29T11:04:14;6.82;;;4.95;;
15776;SDS011;7989;51.198;6.676;2022-09-29T11:06:45;5.00;;;4.20;;
15776;SDS011;7989;51.198;6.676;2022-09-29T11:09:26;5.30;;;3.70;;
15776;SDS011;7989;51.198;6.676;2022-09-29T11:11:55;5.45;;;4.63;;
15776;SDS011;7989;51.198;6.676;2022-09-29T11:14:23;6.80;;;3.72;;
15776;SDS011;7989;51.198;6.676;2022-09-29T11:16:52;4.32;;;3.92;;
15776;SDS011;7989;51.198;6.676;2022-09-29T11:19:19;11.15;;;5.20;;
15776;SDS011;7989;51.198;6.676;2022-09-29T11:22:03;7.03;;;4.82;;
15776;SDS011;7989;51.198;6.676;2022-09-29T11:24:51;6.07;;;4.35;;
15776;SDS011;7989;51.198;6.676;2022-09-29T11:27:37;6.53;;;4.72;;
15776;SDS011;7989;51.198;6.676;2022-09-29T11:30:15;8.27;;;4.55;;
15776;SDS011;7989;51.198;6.676;2022-09-29T11:32:49;6.88;;;3.97;;
15776;SDS011;7989;51.198;6.676;2022-09-29T11:35:32;5.13;;;3.10;;
15776;SDS011;7989;51.198;6.676;2022-09-29T11:41:01;3.55;;;2.50;;
15776;SDS011;7989;51.198;6.676;2022-09-29T11:43:42;3.35;;;2.17;;
15776;SDS011;7989;51.198;6.676;2022-09-29T11:46:20;2.35;;;2.15;;
15776;SDS011;7989;51.198;6.676;2022-09-29T11:48:58;3.78;;;1.80;;
15776;SDS011;7989;51.198;6.676;2022-09-29T11:51:43;1.98;;;1.20;;
15776;SDS011;7989;51.198;6.676;2022-09-29T11:54:31;5.88;;;2.70;;
15776;SDS011;7989;51.198;6.676;2022-09-29T11:57:09;3.75;;;2.00;;
15776;SDS011;7989;51.198;6.676;2022-09-29T11:59:47;9.70;;;7.45;;
15776;SDS011;7989;51.198;6.676;2022-09-29T12:05:25;3.28;;;1.63;;
15776;SDS011;7989;51.198;6.676;2022-09-29T12:08:01;1.85;;;1.50;;
15776;SDS011;7989;51.198;6.676;2022-09-29T12:10:43;2.45;;;2.13;;
15776;SDS011;7989;51.198;6.676;2022-09-29T12:13:20;4.05;;;2.20;;
15776;SDS011;7989;51.198;6.676;2022-09-29T12:15:57;4.63;;;1.90;;
15776;SDS011;7989;51.198;6.676;2022-09-29T12:18:29;3.20;;;2.72;;
15776;SDS011;7989;51.198;6.676;2022-09-29T12:21:03;3.80;;;2.42;;
15776;SDS011;7989;51.198;6.676;2022-09-29T12:23:32;3.45;;;2.42;;
15776;SDS011;7989;51.198;6.676;2022-09-29T12:26:05;1.65;;;1.55;;
15776;SDS011;7989;51.198;6.676;2022-09-29T12:28:36;3.50;;;1.60;;
15776;SDS011;7989;51.198;6.676;2022-09-29T12:31:08;1.63;;;1.50;;
15776;SDS011;7989;51.198;6.676;2022-09-29T12:33:41;5.53;;;1.90;;
15776;SDS011;7989;51.198;6.676;2022-09-29T12:39:14;4.40;;;1.73;;
15776;SDS011;7989;51.198;6.676;2022-09-29T12:42:01;2.35;;;1.70;;
15776;SDS011;7989;51.198;6.676;2022-09-29T12:44:39;3.13;;;2.40;;
15776;SDS011;7989;51.198;6.676;2022-09-29T12:47:13;3.70;;;2.25;;
15776;SDS011;7989;51.198;6.676;2022-09-29T12:49:48;3.97;;;1.85;;
15776;SDS011;7989;51.198;6.676;2022-09-29T12:52:28;2.63;;;1.65;;
15776;SDS011;7989;51.198;6.676;2022-09-29T12:55:03;1.73;;;1.50;;
15776;SDS011;7989;51.198;6.676;2022-09-29T12:57:35;3.05;;;1.80;;
15776;SDS011;7989;51.198;6.676;2022-09-29T13:00:05;2.85;;;1.70;;
15776;SDS011;7989;51.198;6.676;2022-09-29T13:02:43;3.53;;;2.72;;
15776;SDS011;7989;51.198;6.676;2022-09-29T13:05:39;3.05;;;1.48;;
15776;SDS011;7989;51.198;6.676;2022-09-29T13:08:32;0.80;;;0.80;;
15776;SDS011;7989;51.198;6.676;2022-09-29T13:11:32;5.65;;;5.10;;
15776;SDS011;7989;51.198;6.676;2022-09-29T13:14:17;8.15;;;2.53;;
15776;SDS011;7989;51.198;6.676;2022-09-29T13:17:03;2.67;;;1.42;;
15776;SDS011;7989;51.198;6.676;2022-09-29T13:19:41;12.68;;;2.85;;
15776;SDS011;7989;51.198;6.676;2022-09-29T13:22:34;3.88;;;2.58;;
15776;SDS011;7989;51.198;6.676;2022-09-29T13:25:16;4.85;;;2.53;;
15776;SDS011;7989;51.198;6.676;2022-09-29T13:27:48;4.22;;;2.60;;
15776;SDS011;7989;51.198;6.676;2022-09-29T13:30:19;3.83;;;2.22;;
15776;SDS011;7989;51.198;6.676;2022-09-29T13:32:48;5.45;;;2.22;;
15776;SDS011;7989;51.198;6.676;2022-09-29T13:35:18;2.65;;;2.03;;
15776;SDS011;7989;51.198;6.676;2022-09-29T13:37:49;3.25;;;2.00;;
15776;SDS011;7989;51.198;6.676;2022-09-29T13:40:19;6.55;;;2.90;;
15776;SDS011;7989;51.198;6.676;2022-09-29T13:42:48;6.13;;;2.67;;
15776;SDS011;7989;51.198;6.676;2022-09-29T13:48:34;6.55;;;1.95;;
15776;SDS011;7989;51.198;6.676;2022-09-29T13:51:28;3.67;;;2.78;;
15776;SDS011;7989;51.198;6.676;2022-09-29T13:54:20;4.03;;;1.70;;
15776;SDS011;7989;51.198;6.676;2022-09-29T14:02:43;6.88;;;1.92;;
15776;SDS011;7989;51.198;6.676;2022-09-29T14:08:07;3.75;;;1.88;;
15776;SDS011;7989;51.198;6.676;2022-09-29T14:10:41;5.35;;;1.90;;
15776;SDS011;7989;51.198;6.676;2022-09-29T14:13:11;1.95;;;1.48;;
15776;SDS011;7989;51.198;6.676;2022-09-29T14:15:42;5.72;;;1.88;;
15776;SDS011;7989;51.198;6.676;2022-09-29T14:18:16;3.30;;;1.75;;
15776;SDS011;7989;51.198;6.676;2022-09-29T14:20:58;2.22;;;1.60;;
15776;SDS011;7989;51.198;6.676;2022-09-29T14:23:46;3.25;;;1.80;;
15776;SDS011;7989;51.198;6.676;2022-09-29T14:29:12;2.60;;;1.80;;
15776;SDS011;7989;51.198;6.676;2022-09-29T14:31:43;2.95;;;1.40;;
15776;SDS011;7989;51.198;6.676;2022-09-29T14:34:15;4.53;;;1.90;;
15776;SDS011;7989;51.198;6.676;2022-09-29T14:36:45;4.05;;;1.83;;
15776;SDS011;7989;51.198;6.676;2022-09-29T14:39:13;2.60;;;1.52;;
15776;SDS011;7989;51.198;6.676;2022-09-29T14:41:41;3.03;;;1.70;;
15776;SDS011;7989;51.198;6.676;2022-09-29T14:44:10;2.70;;;1.60;;
15776;SDS011;7989;51.198;6.676;2022-09-29T14:46:47;2.83;;;1.90;;
15776;SDS011;7989;51.198;6.676;2022-09-29T14:49:47;3.10;;;1.67;;
15776;SDS011;7989;51.198;6.676;2022-09-29T14:52:42;4.45;;;1.73;;
15776;SDS011;7989;51.198;6.676;2022-09-29T14:55:20;3.42;;;1.35;;
15776;SDS011;7989;51.198;6.676;2022-09-29T14:58:03;4.32;;;1.88;;
15776;SDS011;7989;51.198;6.676;2022-09-29T15:00:44;4.60;;;1.40;;
15776;SDS011;7989;51.198;6.676;2022-09-29T15:03:22;1.92;;;1.15;;
15776;SDS011;7989;51.198;6.676;2022-09-29T15:06:04;3.35;;;1.10;;
15776;SDS011;7989;51.198;6.676;2022-09-29T15:08:36;1.83;;;1.55;;
15776;SDS011;7989;51.198;6.676;2022-09-29T15:11:19;1.85;;;1.13;;
15776;SDS011;7989;51.198;6.676;2022-09-29T15:13:49;5.32;;;1.50;;
15776;SDS011;7989;51.198;6.676;2022-09-29T15:16:20;3.78;;;1.65;;
15776;SDS011;7989;51.198;6.676;2022-09-29T15:18:56;2.83;;;1.15;;
15776;SDS011;7989;51.198;6.676;2022-09-29T15:21:38;3.17;;;1.20;;
15776;SDS011;7989;51.198;6.676;2022-09-29T15:24:23;3.45;;;2.72;;
15776;SDS011;7989;51.198;6.676;2022-09-29T15:26:59;4.45;;;3.60;;
15776;SDS011;7989;51.198;6.676;2022-09-29T15:29:27;1.40;;;0.90;;
15776;SDS011;7989;51.198;6.676;2022-09-29T15:31:54;4.03;;;3.08;;
15776;SDS011;7989;51.198;6.676;2022-09-29T15:34:23;3.25;;;2.08;;
15776;SDS011;7989;51.198;6.676;2022-09-29T15:36:52;3.40;;;3.10;;
15776;SDS011;7989;51.198;6.676;2022-09-29T15:39:36;3.70;;;2.92;;
15776;SDS011;7989;51.198;6.676;2022-09-29T15:42:12;7.43;;;5.28;;
15776;SDS011;7989;51.198;6.676;2022-09-29T15:44:44;3.30;;;1.92;;
15776;SDS011;7989;51.198;6.676;2022-09-29T15:47:19;2.03;;;1.20;;
15776;SDS011;7989;51.198;6.676;2022-09-29T15:49:48;2.28;;;1.23;;
15776;SDS011;7989;51.198;6.676;2022-09-29T15:52:18;4.50;;;1.40;;
15776;SDS011;7989;51.198;6.676;2022-09-29T15:54:48;3.83;;;2.63;;
15776;SDS011;7989;51.198;6.676;2022-09-29T15:57:27;5.63;;;1.92;;
15776;SDS011;7989;51.198;6.676;2022-09-29T16:00:17;5.60;;;1.60;;
15776;SDS011;7989;51.198;6.676;2022-09-29T16:03:09;2.42;;;1.10;;